Time;durP1;ratioP1;P1;durP2;ratioP2;P2;SDS_P1;SDS_P2;PMS_P1;PMS_P2;Temp;Humidity;BMP_temperature;BMP_pressure;BME280_temperature;BME280_humidity;BME280_pressure;Samples;Min_cycle;Max_cycle;Signal;HPM_P1;HPM_P2
2022/09/28 00:01:15;;;;;;;12.97;11.63;;;;;;;;;;5094930;28;20193;-74
2022/09/28 00:03:42;;;;;;;17.83;12.60;;;;;;;-142.65;99.60;50168.78;5094665;28;20626;-74
2022/09/28 00:06:09;;;;;;;18.40;11.87;;;;;;;;;;5094285;28;20188;-74
2022/09/28 00:08:36;;;;;;;35.23;12.00;;;;;;;-142.65;99.80;50174.75;5094210;28;20216;-74
2022/09/28 00:11:05;;;;;;;18.47;10.60;;;;;;;-142.65;99.66;50164.81;5094211;28;20188;-74
2022/09/28 00:13:32;;;;;;;16.10;11.50;;;;;;;-142.65;99.48;50170.78;5094061;28;20196;-74
2022/09/28 00:15:59;;;;;;;13.13;10.60;;;;;;;;;;5094105;28;20186;-74
2022/09/28 00:18:26;;;;;;;13.67;9.93;;;;;;;-142.65;99.33;50168.78;5094030;28;20658;-74
2022/09/28 00:21:07;;;;;;;14.93;11.23;;;;;;;-142.65;99.22;50170.78;5094031;28;20185;-74
2022/09/28 00:24:11;;;;;;;16.03;10.03;;;;;;;-142.65;99.05;50182.72;5094324;28;20181;-74
2022/09/28 00:26:22;;;;;;;13.47;10.63;;;;;;;-142.65;99.16;50170.78;5093870;28;20204;-74
2022/09/28 00:28:57;;;;;;;10.90;9.33;;;;;;;-142.65;99.27;50170.78;5093808;28;20233;-74
2022/09/28 00:31:26;;;;;;;9.10;8.23;;;;;;;-142.65;98.98;50172.78;5093885;28;20184;-74
2022/09/28 00:33:56;;;;;;;8.70;7.97;;;;;;;-142.65;99.00;50170.78;5094055;28;20610;-75
2022/09/28 00:36:25;;;;;;;10.00;8.30;;;;;;;-142.65;98.44;50180.75;5075645;28;20290;-75
2022/09/28 00:38:52;;;;;;;7.90;7.33;;;;;;;-142.65;98.16;50172.78;5093691;28;20208;-74
2022/09/28 00:41:18;;;;;;;8.37;7.70;;;;;;;-142.65;98.06;50180.75;5093919;28;20193;-74
2022/09/28 00:43:45;;;;;;;7.60;7.07;;;;;;;-142.65;98.32;50170.78;5075564;28;20189;-74
2022/09/28 00:46:18;;;;;;;8.40;7.70;;;;;;;-142.65;98.37;50176.75;5075579;28;20187;-74
2022/09/28 00:48:55;;;;;;;10.23;7.33;;;;;;;-142.65;98.28;50178.75;5092577;28;20226;-74
2022/09/28 00:51:24;;;;;;;7.97;7.30;;;;;;;-142.65;98.14;50170.78;5093592;28;20191;-74
2022/09/28 00:53:52;;;;;;;8.63;7.77;;;;;;;-142.65;98.27;50170.78;5094261;28;20216;-74
2022/09/28 00:56:22;;;;;;;7.97;7.03;;;;;;;-142.65;98.29;50178.75;5075656;28;20190;-74
2022/09/28 00:58:51;;;;;;;7.27;6.77;;;;;;;-142.65;98.20;50176.75;5093386;28;20219;-74
2022/09/28 01:01:18;;;;;;;10.90;7.60;;;;;;;;;;5075370;28;20676;-74
2022/09/28 01:03:47;;;;;;;7.53;6.73;;;;;;;-142.65;97.77;50168.78;5093698;28;20735;-74
2022/09/28 01:06:20;;;;;;;7.73;7.13;;;;;;;-142.65;97.54;50170.78;5075304;28;20286;-74
2022/09/28 01:08:50;;;;;;;7.77;7.03;;;;;;;-142.65;97.38;50164.81;5092339;28;20696;-73
2022/09/28 01:11:17;;;;;;;6.93;6.03;;;;;;;;;;5075450;28;20194;-74
2022/09/28 01:13:47;;;;;;;6.37;5.97;;;;;;;-142.65;97.45;50118.97;5093278;28;20583;-74
2022/09/28 01:16:22;;;;;;;6.43;6.03;;;;;;;-142.65;97.45;50178.75;5075192;28;20224;-74
2022/09/28 01:19:20;;;;;;;6.53;5.73;;;;;;;-142.65;97.29;50176.75;5075841;28;20599;-73
2022/09/28 01:22:10;;;;;;;6.13;5.60;;;;;;;-142.65;97.41;50170.78;5093329;28;20175;-74
2022/09/28 01:24:45;;;;;;;5.57;5.27;;;;;;;-142.65;97.29;50182.72;5093279;28;20528;-74
2022/09/28 01:27:26;;;;;;;5.70;5.40;;;;;;;-142.65;97.34;50178.75;5093159;28;20191;-74
2022/09/28 01:30:00;;;;;;;5.57;5.47;;;;;;;-142.65;96.88;50168.78;5093188;28;20201;-74
2022/09/28 01:32:45;;;;;;;6.23;5.77;;;;;;;-142.65;97.12;50176.75;5075113;28;20192;-74
2022/09/28 01:35:19;;;;;;;7.77;7.03;;;;;;;-142.65;97.05;50164.81;5093881;28;20200;-74
2022/09/28 01:37:46;;;;;;;7.53;7.03;;;;;;;-142.65;97.34;50174.75;5093422;28;20185;-74
2022/09/28 01:40:14;;;;;;;8.73;7.50;;;;;;;-142.65;97.26;50178.75;5093004;28;20197;-74
2022/09/28 01:42:45;;;;;;;7.47;7.00;;;;;;;-142.65;97.21;50172.78;5093074;28;20278;-74
2022/09/28 01:45:22;;;;;;;8.10;7.33;;;;;;;-142.65;97.26;50162.81;5075023;28;20178;-74
2022/09/28 01:47:52;;;;;;;8.53;7.93;;;;;;;-142.65;97.19;50178.75;5075716;28;20590;-74
2022/09/28 01:50:21;;;;;;;8.40;7.87;;;;;;;;;;5074860;28;20304;-73
2022/09/28 01:53:03;;;;;;;10.20;7.87;;;;;;;-142.65;97.15;50180.75;5095382;28;20228;-73
2022/09/28 01:55:37;;;;;;;8.97;8.13;;;;;;;-142.65;97.27;50168.78;5078612;28;20209;-73
2022/09/28 01:58:27;;;;;;;11.20;8.13;;;;;;;-142.65;97.69;50168.78;5096409;28;20187;-73
2022/09/28 02:00:59;;;;;;;8.73;8.17;;;;;;;;;;5078823;28;20191;-73
2022/09/28 02:03:37;;;;;;;8.60;7.90;;;;;;;-142.65;97.84;50176.75;5095497;28;20574;-73
2022/09/28 02:06:11;;;;;;;10.37;8.83;;;;;;;-142.65;97.89;50172.78;5078760;28;20181;-73
2022/09/28 02:08:58;;;;;;;10.23;9.43;;;;;;;;;;5078368;28;20232;-74
2022/09/28 02:11:40;;;;;;;10.10;9.10;;;;;;;-142.65;98.01;50170.78;5078664;28;20650;-74
2022/09/28 02:14:09;;;;;;;15.47;9.60;;;;;;;-142.65;98.24;50170.78;5078519;28;20188;-74
2022/09/28 02:16:39;;;;;;;11.13;10.20;;;;;;;;;;5078290;28;20200;-74
2022/09/28 02:19:10;;;;;;;11.80;10.80;;;;;;;-142.65;98.46;50164.81;5095050;28;20210;-73
2022/09/28 02:21:46;;;;;;;11.40;10.60;;;;;;;-142.65;98.33;50178.75;5078161;28;20192;-73
2022/09/28 02:24:39;;;;;;;13.00;11.70;;;;;;;-142.65;98.34;50174.75;5096898;28;20536;-74
2022/09/28 02:27:28;;;;;;;11.83;10.93;;;;;;;-142.65;98.33;50176.75;5078680;28;20599;-74
2022/09/28 02:29:54;;;;;;;11.77;10.87;;;;;;;-142.65;98.59;50182.72;5077973;28;20584;-73
2022/09/28 02:32:23;;;;;;;12.43;11.33;;;;;;;-142.65;98.39;50168.78;5094891;28;20194;-74
2022/09/28 02:34:50;;;;;;;12.80;11.70;;;;;;;-142.65;97.90;50170.78;5077821;28;20220;-73
2022/09/28 02:37:16;;;;;;;13.47;12.27;;;;;;;-142.65;98.13;50180.75;5094787;28;20293;-73
2022/09/28 02:39:43;;;;;;;14.20;12.80;;;;;;;-142.65;98.25;50178.75;5096300;28;20210;-73
2022/09/28 02:42:20;;;;;;;13.30;12.20;;;;;;;-142.65;97.76;50170.78;5094701;28;20587;-73
2022/09/28 02:45:05;;;;;;;13.33;12.00;;;;;;;;;;5077851;28;20239;-73
2022/09/28 02:48:01;;;;;;;14.97;11.50;;;;;;;-142.65;98.06;50172.78;5077753;28;20282;-73
2022/09/28 02:50:40;;;;;;;11.37;10.47;;;;;;;-142.65;97.66;50172.78;5077887;28;20224;-73
2022/09/28 02:53:18;;;;;;;12.73;11.43;;;;;;;-142.65;97.66;50178.75;5094539;28;20189;-73
2022/09/28 02:56:24;;;;;;;15.27;12.03;;;;;;;-142.65;97.47;50162.81;5077554;28;20304;-73
2022/09/28 02:59:23;;;;;;;11.33;10.63;;;;;;;-142.65;97.50;50170.78;5077527;28;20214;-72
2022/09/28 03:02:01;;;;;;;11.97;11.07;;;;;;;;;;5077503;28;20229;-72
2022/09/28 03:04:41;;;;;;;11.70;10.80;;;;;;;-142.65;97.72;50170.78;5078321;28;20185;-72
2022/09/28 03:07:28;;;;;;;11.80;10.73;;;;;;;-142.65;97.46;50174.75;5078493;28;20219;-73
2022/09/28 03:10:03;;;;;;;12.13;11.13;;;;;;;;;;5095681;28;20255;-72
2022/09/28 03:12:32;;;;;;;11.97;11.17;;;;;;;-142.65;97.47;50168.78;5077314;28;20232;-73
2022/09/28 03:15:09;;;;;;;13.03;11.90;;;;;;;-142.65;97.34;50178.75;5094054;28;20293;-73
2022/09/28 03:17:36;;;;;;;12.37;11.27;;;;;;;;;;5077448;28;20190;-73
2022/09/28 03:20:03;;;;;;;13.00;11.50;;;;;;;-142.65;97.45;50168.78;5094093;28;20211;-73
2022/09/28 03:22:30;;;;;;;12.13;11.10;;;;;;;-142.65;97.48;50168.78;5095745;28;20539;-73
2022/09/28 03:24:56;;;;;;;11.77;10.77;;;;;;;-142.65;97.28;50170.78;5095146;28;20260;-73
2022/09/28 03:27:22;;;;;;;14.80;11.43;;;;;;;-142.65;97.38;50174.75;5093797;28;20709;-73
2022/09/28 03:29:49;;;;;;;12.60;11.33;;;;;;;-142.65;97.59;50162.81;5093702;28;20224;-73
2022/09/28 03:32:15;;;;;;;12.97;11.77;;;;;;;-142.65;97.71;50180.75;5094988;28;20661;-73
2022/09/28 03:34:42;;;;;;;12.27;11.27;;;;;;;-142.65;97.65;50170.78;5093630;28;20296;-73
2022/09/28 03:37:08;;;;;;;12.53;11.40;;;;;;;-142.65;97.31;50170.78;5093677;28;20397;-73
2022/09/28 03:39:35;;;;;;;12.00;11.03;;;;;;;;;;5093510;28;20256;-72
2022/09/28 03:42:02;;;;;;;12.63;11.30;;;;;;;-142.65;97.41;50170.78;5093531;28;20189;-72
2022/09/28 03:44:32;;;;;;;12.67;11.57;;;;;;;-142.65;97.51;50172.78;5094041;28;20197;-72
2022/09/28 03:46:59;;;;;;;13.97;11.13;;;;;;;-142.65;97.63;50170.78;5093426;28;20190;-73
2022/09/28 03:49:25;;;;;;;14.00;12.70;;;;;;;-142.65;97.70;50164.81;5093350;28;20209;-73
2022/09/28 03:51:51;;;;;;;15.93;11.90;;;;;;;;;;5093365;28;20190;-73
2022/09/28 03:54:18;;;;;;;10.87;10.17;;;;;;;-142.65;96.94;50168.78;5093454;28;20190;-73
2022/09/28 03:56:45;;;;;;;12.57;11.33;;;;;;;-142.65;97.14;50170.78;5093240;28;20190;-73
2022/09/28 03:59:11;;;;;;;12.67;11.87;;;;;;;-142.65;97.08;50172.78;5093154;28;20213;-73
2022/09/28 04:01:38;;;;;;;13.50;12.47;;;;;;;-142.65;96.97;50174.75;5093167;28;20197;-73
2022/09/28 04:04:04;;;;;;;14.73;12.60;;;;;;;-142.65;97.17;50170.78;5076230;28;20190;-73
2022/09/28 04:06:31;;;;;;;14.03;12.67;;;;;;;-142.65;97.37;50174.75;5093642;28;20235;-73
2022/09/28 04:08:57;;;;;;;14.93;13.37;;;;;;;-142.65;97.29;50170.78;5092921;28;20238;-73
2022/09/28 04:11:24;;;;;;;18.47;13.83;;;;;;;-142.65;97.45;50118.97;5093218;28;20224;-73
2022/09/28 04:13:50;;;;;;;15.70;13.73;;;;;;;-142.65;97.63;50170.78;5093302;28;20228;-74
2022/09/28 04:16:17;;;;;;;19.37;14.03;;;;;;;-142.65;97.71;50170.78;5075417;28;20248;-73
2022/09/28 04:19:00;;;;;;;23.23;14.70;;;;;;;-142.65;97.82;50174.75;5093821;28;20229;-73
2022/09/28 04:21:32;;;;;;;19.50;13.73;;;;;;;-142.65;97.83;50168.78;5094583;28;20174;-73
2022/09/28 04:24:07;;;;;;;15.77;14.17;;;;;;;;;;5093420;28;20185;-73
2022/09/28 04:26:34;;;;;;;21.63;14.07;;;;;;;-142.65;97.99;50170.78;5076180;28;20186;-73
2022/09/28 04:29:16;;;;;;;23.80;14.13;;;;;;;-142.65;97.96;50178.75;5092574;28;20239;-73
2022/09/28 04:31:55;;;;;;;17.03;13.90;;;;;;;;;;5075837;28;20684;-73
2022/09/28 04:34:32;;;;;;;15.93;14.07;;;;;;;-142.65;98.01;50174.75;5092793;28;20217;-73
2022/09/28 04:37:03;;;;;;;26.73;14.87;;;;;;;-142.65;97.89;50176.75;5075701;28;20190;-73
2022/09/28 04:39:29;;;;;;;16.70;14.03;;;;;;;-142.65;97.93;50170.78;5092412;28;20317;-74
2022/09/28 04:41:56;;;;;;;24.97;15.17;;;;;;;;;;5092463;28;20186;-74
2022/09/28 04:44:22;;;;;;;18.37;15.17;;;;;;;-142.65;98.09;50170.78;5092406;28;20275;-73
2022/09/28 04:46:55;;;;;;;24.67;14.73;;;;;;;-142.65;98.12;50176.75;5092925;28;20196;-73
2022/09/28 04:49:27;;;;;;;27.37;15.17;;;;;;;-142.65;98.06;50178.75;5093873;28;20212;-73
2022/09/28 04:52:03;;;;;;;19.63;15.40;;;;;;;;;;5075620;28;20174;-74
2022/09/28 04:54:29;;;;;;;21.17;14.93;;;;;;;-142.65;98.02;50172.78;5075236;28;20328;-74
2022/09/28 04:56:56;;;;;;;24.00;15.80;;;;;;;;;;5092217;28;20192;-74
2022/09/28 04:59:23;;;;;;;19.97;15.83;;;;;;;-142.65;98.23;50164.81;5075285;28;20233;-73
2022/09/28 05:01:49;;;;;;;21.27;16.63;;;;;;;;;;5092391;28;20237;-73
2022/09/28 05:04:34;;;;;;;25.23;17.00;;;;;;;-142.65;97.98;50168.78;5093976;28;20206;-73
2022/09/28 05:07:12;;;;;;;25.83;16.67;;;;;;;-142.65;98.09;50168.78;5093942;28;20179;-73
2022/09/28 05:09:39;;;;;;;26.90;18.20;;;;;;;-142.65;97.90;50172.78;5093498;28;20218;-73
2022/09/28 05:12:08;;;;;;;29.93;18.33;;;;;;;-142.65;97.93;50174.75;5092210;28;20621;-73
2022/09/28 05:14:35;;;;;;;36.87;18.63;;;;;;;-142.65;98.17;50172.78;5075124;28;20659;-73
2022/09/28 05:17:03;;;;;;;34.90;19.23;;;;;;;-142.65;98.06;50176.75;5092807;28;20184;-73
2022/09/28 05:19:39;;;;;;;32.20;19.77;;;;;;;-142.65;97.98;50172.78;5092186;28;20618;-72
2022/09/28 05:22:10;;;;;;;30.83;18.43;;;;;;;-142.65;97.89;50170.78;5092003;28;20247;-73
2022/09/28 05:24:40;;;;;;;29.27;19.80;;;;;;;;;;5092825;28;20577;-73
2022/09/28 05:27:07;;;;;;;22.73;18.93;;;;;;;-142.65;98.19;50172.78;5094688;28;20193;-73
2022/09/28 05:29:34;;;;;;;26.77;19.13;;;;;;;-142.65;97.88;50168.78;5096292;28;20223;-73
2022/09/28 05:32:40;;;;;;;29.70;19.23;;;;;;;-142.65;98.04;50174.75;5069253;28;20196;-73
2022/09/28 05:35:16;;;;;;;32.80;18.53;;;;;;;-142.65;97.94;50170.78;5097536;28;20193;-73
2022/09/28 05:37:45;;;;;;;29.13;19.23;;;;;;;-142.65;97.98;50176.75;5078994;28;20217;-73
2022/09/28 05:40:12;;;;;;;28.23;18.20;;;;;;;-142.65;98.09;50164.81;5097084;28;20209;-73
2022/09/28 05:42:39;;;;;;;31.50;18.10;;;;;;;;;;5078857;28;20224;-73
2022/09/28 05:45:07;;;;;;;22.87;17.30;;;;;;;-142.65;97.93;50172.78;5095803;28;20188;-73
2022/09/28 05:47:41;;;;;;;26.27;18.83;;;;;;;;;;5079710;28;20574;-73
2022/09/28 05:50:10;;;;;;;27.63;18.37;;;;;;;-142.65;97.82;50174.75;5079245;28;20206;-73
2022/09/28 05:52:38;;;;;;;22.93;18.03;;;;;;;-142.65;97.88;50168.78;5079941;28;20189;-73
2022/09/28 05:55:06;;;;;;;25.40;19.87;;;;;;;-142.65;97.82;50168.78;5095545;28;20300;-73
2022/09/28 05:57:33;;;;;;;25.30;19.00;;;;;;;-142.65;97.79;50178.75;5078618;28;20190;-73
2022/09/28 05:59:59;;;;;;;25.97;19.70;;;;;;;-142.65;97.84;50170.78;5095670;28;20221;-73
2022/09/28 06:02:26;;;;;;;25.73;19.97;;;;;;;-142.65;97.70;50168.78;5095394;28;20228;-73
2022/09/28 06:04:53;;;;;;;25.73;19.17;;;;;;;-142.65;97.53;50170.78;5095360;28;20213;-73
2022/09/28 06:07:20;;;;;;;25.30;19.10;;;;;;;-142.65;97.37;50172.78;5095293;28;20196;-73
2022/09/28 06:09:47;;;;;;;24.87;18.30;;;;;;;-142.65;97.37;50168.78;5096553;28;20209;-73
2022/09/28 06:12:18;;;;;;;30.33;18.93;;;;;;;-142.65;97.54;50174.75;5095217;28;20203;-73
2022/09/28 06:14:48;;;;;;;23.27;19.40;;;;;;;;;;5096488;28;20174;-73
2022/09/28 06:17:14;;;;;;;20.90;17.67;;;;;;;;;;5095017;28;20312;-73
2022/09/28 06:19:43;;;;;;;28.10;19.47;;;;;;;-142.65;97.33;50162.81;5095025;28;20214;-73
2022/09/28 06:22:24;;;;;;;32.60;19.77;;;;;;;-142.65;97.36;50162.81;5095135;28;20188;-73
2022/09/28 06:24:58;;;;;;;29.50;20.03;;;;;;;;;;5095345;28;20282;-72
2022/09/28 06:27:24;;;;;;;29.00;19.63;;;;;;;-142.65;97.58;50178.75;5094910;28;20288;-73
2022/09/28 06:29:51;;;;;;;24.53;19.20;;;;;;;-142.65;97.75;50176.75;5094816;28;20221;-73
2022/09/28 06:32:18;;;;;;;32.60;19.00;;;;;;;-142.65;97.88;50174.75;5078003;28;20199;-73
2022/09/28 06:34:47;;;;;;;25.80;19.77;;;;;;;-142.65;97.82;50174.75;5078193;28;20190;-73
2022/09/28 06:37:19;;;;;;;23.43;19.20;;;;;;;-142.65;97.92;50180.75;5095558;28;20197;-73
2022/09/28 06:39:45;;;;;;;30.50;19.83;;;;;;;-142.65;97.85;50174.75;5094744;28;20297;-73
2022/09/28 06:42:12;;;;;;;24.57;20.20;;;;;;;-142.65;97.70;50168.78;5094666;28;20203;-73
2022/09/28 06:45:01;;;;;;;26.93;19.53;;;;;;;-142.65;97.85;50174.75;5095913;28;20726;-73
2022/09/28 06:47:41;;;;;;;23.07;19.27;;;;;;;-142.65;98.05;50172.78;5094593;28;20200;-73
2022/09/28 06:50:24;;;;;;;29.23;19.97;;;;;;;;;;5094496;28;20210;-73
2022/09/28 06:53:13;;;;;;;26.90;20.00;;;;;;;;;;5096339;28;20182;-73
2022/09/28 06:56:08;;;;;;;27.00;19.77;;;;;;;-142.65;97.95;50178.75;5064276;28;20220;-73
2022/09/28 06:58:34;;;;;;;24.67;20.23;;;;;;;;;;5078300;28;20301;-73
2022/09/28 07:01:01;;;;;;;28.07;20.47;;;;;;;;;;5094354;28;20295;-73
2022/09/28 07:03:34;;;;;;;25.37;19.57;;;;;;;-142.65;98.13;50168.78;5062040;28;20708;-73
2022/09/28 07:06:30;;;;;;;27.93;20.40;;;;;;;-142.65;98.24;50164.81;5094257;28;20184;-73
2022/09/28 07:09:08;;;;;;;27.47;20.27;;;;;;;-142.65;98.33;50170.78;5077571;28;20304;-73
2022/09/28 07:12:17;;;;;;;28.40;20.00;;;;;;;-142.65;98.37;50168.78;5073209;28;20247;-73
2022/09/28 07:15:01;;;;;;;22.80;19.23;;;;;;;-142.65;98.45;50174.75;5095634;28;20552;-73
2022/09/28 07:17:28;;;;;;;27.13;19.30;;;;;;;-142.65;98.32;50170.78;5095508;28;20206;-73
2022/09/28 07:19:57;;;;;;;34.70;20.87;;;;;;;-142.65;98.24;50168.78;5077080;28;20259;-73
2022/09/28 07:22:39;;;;;;;27.03;18.90;;;;;;;-142.65;98.57;50168.78;5094515;28;20186;-73
2022/09/28 07:25:13;;;;;;;25.07;19.47;;;;;;;-142.65;98.57;50168.78;5077315;28;20562;-73
2022/09/28 07:27:59;;;;;;;22.67;19.93;;;;;;;;;;5093899;28;20193;-73
2022/09/28 07:30:48;;;;;;;31.70;18.77;;;;;;;-142.65;98.52;50164.81;5076779;28;20286;-73
2022/09/28 07:33:33;;;;;;;25.07;20.13;;;;;;;-142.65;97.96;50170.78;5095579;28;20175;-73
2022/09/28 07:36:33;;;;;;;27.37;18.43;;;;;;;-142.65;98.01;50178.75;5086420;28;20608;-73
2022/09/28 07:39:02;;;;;;;19.43;16.77;;;;;;;-142.65;97.78;50170.78;5077125;28;20264;-73
2022/09/28 07:41:31;;;;;;;19.30;17.30;;;;;;;-142.65;98.01;50170.78;5076702;28;20220;-73
2022/09/28 07:44:04;;;;;;;20.53;17.30;;;;;;;-142.65;97.93;50178.75;5077587;28;20182;-73
2022/09/28 07:46:34;;;;;;;27.67;17.40;;;;;;;-142.65;97.47;50170.78;5077465;28;20281;-73
2022/09/28 07:49:05;;;;;;;24.33;17.20;;;;;;;-142.65;97.77;50168.78;5075951;28;20209;-73
2022/09/28 07:51:52;;;;;;;28.87;16.43;;;;;;;-142.65;97.93;50168.78;5076430;28;20231;-73
2022/09/28 07:54:35;;;;;;;22.53;17.13;;;;;;;-142.65;97.83;50172.78;5093301;28;20193;-73
2022/09/28 07:57:35;;;;;;;23.77;17.30;;;;;;;-142.65;97.49;50168.78;5094005;28;20213;-73
2022/09/28 08:00:15;;;;;;;18.43;15.97;;;;;;;-142.65;97.62;50164.81;5076271;28;20774;-73
2022/09/28 08:02:47;;;;;;;22.37;17.00;;;;;;;-142.65;97.50;50170.78;5093177;28;20679;-73
2022/09/28 08:05:19;;;;;;;29.57;17.03;;;;;;;-142.65;97.50;50168.78;5077059;28;20265;-73
2022/09/28 08:07:46;;;;;;;17.83;15.93;;;;;;;-142.65;97.61;50168.78;5093312;28;20194;-73
2022/09/28 08:10:12;;;;;;;17.63;15.87;;;;;;;-142.65;97.15;50170.78;5093242;28;20219;-73
2022/09/28 08:12:46;;;;;;;16.80;15.00;;;;;;;-142.65;97.50;50172.78;5094455;28;20221;-73
2022/09/28 08:15:24;;;;;;;16.40;14.73;;;;;;;-142.65;97.54;50170.78;5075984;28;20182;-73
2022/09/28 08:17:54;;;;;;;16.50;14.60;;;;;;;-142.65;97.70;50170.78;5092917;28;20193;-73
2022/09/28 08:23:17;;;;;;;15.23;13.87;;;;;;;-142.65;97.33;50172.78;5092823;28;20183;-73
2022/09/28 08:25:48;;;;;;;19.10;14.90;;;;;;;-142.65;97.16;50168.78;5075764;28;20190;-74
2022/09/28 08:28:18;;;;;;;22.50;14.53;;;;;;;;;;5075702;28;20288;-73
2022/09/28 08:30:47;;;;;;;19.27;14.90;;;;;;;;;;5076073;28;20197;-73
2022/09/28 08:33:33;;;;;;;16.60;14.07;;;;;;;-142.65;96.81;50172.78;5094491;28;20266;-73
2022/09/28 08:36:18;;;;;;;16.40;14.70;;;;;;;-142.65;96.67;50174.75;5093996;28;20204;-73
2022/09/28 08:39:02;;;;;;;14.57;13.23;;;;;;;-142.65;96.21;50170.78;5094239;28;20267;-73
2022/09/28 08:41:54;;;;;;;15.87;13.93;;;;;;;-142.65;96.34;50178.75;5092610;28;20709;-73
2022/09/28 08:44:56;;;;;;;16.17;14.60;;;;;;;-142.65;96.18;50174.75;5075602;28;20220;-73
2022/09/28 08:50:56;;;;;;;13.47;12.23;;;;;;;-142.65;96.39;50176.75;5092550;28;20693;-73
2022/09/28 08:53:47;;;;;;;18.33;14.00;;;;;;;-142.65;96.24;50170.78;5075513;28;20177;-73
2022/09/28 08:56:36;;;;;;;14.57;11.90;;;;;;;;;;5075391;28;20208;-73
2022/09/28 08:59:08;;;;;;;10.70;9.83;;;;;;;-142.65;93.76;50174.75;5093287;28;20241;-73
2022/09/28 09:01:40;;;;;;;9.67;9.00;;;;;;;-142.65;93.24;50178.75;5092517;28;20196;-73
2022/09/28 09:04:11;;;;;;;10.97;10.00;;;;;;;-142.65;92.67;50172.78;5075595;28;20201;-76
2022/09/28 09:07:10;;;;;;;10.00;9.27;;;;;;;-142.65;93.37;50168.78;5093702;28;20194;-74
2022/09/28 09:10:10;;;;;;;11.87;10.87;;;;;;;-142.65;92.64;50170.78;5091998;28;20305;-73
2022/09/28 09:12:54;;;;;;;9.20;8.70;;;;;;;-142.65;91.46;50168.78;5075238;28;20208;-73
2022/09/28 09:15:46;;;;;;;7.70;7.40;;;;;;;-142.65;91.36;50170.78;5075294;28;20187;-73
2022/09/28 09:18:57;;;;;;;8.53;8.13;;;;;;;-142.65;91.71;50170.78;5093533;28;20219;-73
2022/09/28 09:21:41;;;;;;;8.40;7.97;;;;;;;-142.65;92.11;50170.78;5075213;28;20192;-73
2022/09/28 09:24:32;;;;;;;8.27;7.87;;;;;;;-142.65;91.96;50170.78;5075453;28;20288;-73
2022/09/28 09:27:13;;;;;;;8.03;7.67;;;;;;;-142.65;92.05;50178.75;5075156;28;20210;-73
2022/09/28 09:30:00;;;;;;;7.67;7.33;;;;;;;-142.65;91.53;50164.81;5091912;28;20291;-74
2022/09/28 09:32:53;;;;;;;9.50;8.80;;;;;;;;;;5075936;28;20594;-74
2022/09/28 09:35:39;;;;;;;10.57;7.83;;;;;;;-142.65;91.87;50172.78;5036827;28;20215;-74
2022/09/28 09:38:26;;;;;;;8.93;8.20;;;;;;;;;;5093084;28;20196;-74
2022/09/28 09:41:31;;;;;;;7.63;7.33;;;;;;;-142.65;91.40;50164.81;5083042;28;20204;-73
2022/09/28 09:44:16;;;;;;;7.07;6.60;;;;;;;;;;5093860;28;20538;-73
2022/09/28 09:47:13;;;;;;;6.60;6.37;;;;;;;-142.65;91.63;50168.78;5075510;28;20181;-73
2022/09/28 09:50:10;;;;;;;6.97;6.67;;;;;;;-142.65;91.07;50170.78;5075047;28;20210;-73
2022/09/28 09:52:51;;;;;;;6.60;6.40;;;;;;;-142.65;91.58;50168.78;5074856;28;20178;-73
2022/09/28 09:55:24;;;;;;;7.33;7.03;;;;;;;;;;5074935;28;20293;-73
2022/09/28 09:58:17;;;;;;;6.13;6.03;;;;;;;-142.65;89.98;50168.78;5075327;28;20194;-73
2022/09/28 10:00:53;;;;;;;6.90;6.70;;;;;;;-142.65;89.02;50168.78;5074845;28;20181;-73
2022/09/28 10:03:47;;;;;;;6.70;6.43;;;;;;;-142.65;89.29;50162.81;5092710;28;20204;-73
2022/09/28 10:06:26;;;;;;;7.00;6.73;;;;;;;;;;5091592;28;20178;-73
2022/09/28 10:09:22;;;;;;;8.70;8.13;;;;;;;-142.65;89.29;50162.81;5092999;28;20766;-73
2022/09/28 10:11:50;;;;;;;7.67;7.37;;;;;;;-142.65;89.59;50164.81;5069322;28;20194;-73
2022/09/28 10:14:24;;;;;;;10.80;10.20;;;;;;;;;;5078113;28;20212;-74
2022/09/28 10:17:06;;;;;;;9.27;8.67;;;;;;;-142.65;88.51;50168.78;5078829;28;20202;-73
2022/09/28 10:20:13;;;;;;;7.73;7.53;;;;;;;-142.65;87.88;50172.78;5096285;28;20378;-72
2022/09/28 10:22:55;;;;;;;6.90;6.60;;;;;;;-142.65;88.75;50164.81;5095408;28;20644;-73
2022/09/28 10:25:23;;;;;;;7.60;7.37;;;;;;;-142.65;88.51;50170.78;5096354;28;20203;-73
2022/09/28 10:27:51;;;;;;;6.47;6.30;;;;;;;;;;5078092;28;20186;-73
2022/09/28 10:30:19;;;;;;;6.10;5.90;;;;;;;;;;5094926;28;20205;-73
2022/09/28 10:32:47;;;;;;;5.07;5.07;;;;;;;-142.65;85.07;50164.81;5094867;28;20660;-73
2022/09/28 10:35:18;;;;;;;6.47;6.07;;;;;;;;;;5077949;28;20189;-73
2022/09/28 10:37:53;;;;;;;5.77;5.47;;;;;;;-142.65;85.91;50176.75;5078468;28;20218;-73
2022/09/28 10:40:44;;;;;;;6.80;6.60;;;;;;;-142.65;86.14;50164.81;5096584;28;20158;-73
2022/09/28 10:43:32;;;;;;;6.50;6.27;;;;;;;-142.65;86.42;50178.75;5077861;28;20182;-73
2022/09/28 10:46:11;;;;;;;6.73;6.50;;;;;;;-142.65;86.41;50164.81;5095240;28;20198;-73
2022/09/28 10:48:58;;;;;;;7.03;6.73;;;;;;;-142.65;86.10;50172.78;5094838;28;20766;-73
2022/09/28 10:51:57;;;;;;;5.60;5.47;;;;;;;-142.65;85.44;50162.81;5077791;28;20281;-73
2022/09/28 10:54:35;;;;;;;5.17;5.07;;;;;;;;;;5078731;28;20201;-73
2022/09/28 10:57:02;;;;;;;5.47;5.37;;;;;;;;;;5094369;28;20206;-73
2022/09/28 10:59:36;;;;;;;5.43;5.33;;;;;;;;;;5077605;28;20679;-73
2022/09/28 11:02:33;;;;;;;6.17;4.27;;;;;;;-142.65;83.38;50118.97;5077508;28;20190;-73
2022/09/28 11:05:28;;;;;;;6.73;6.43;;;;;;;;;;5092704;28;20201;-73
2022/09/28 11:08:04;;;;;;;6.00;5.90;;;;;;;;;;5077293;28;20664;-72
2022/09/28 11:10:38;;;;;;;6.70;6.50;;;;;;;-142.65;82.93;50170.78;5078265;28;20181;-72
2022/09/28 11:13:12;;;;;;;6.80;6.47;;;;;;;;;;5077161;28;20230;-72
2022/09/28 11:15:43;;;;;;;7.73;7.43;;;;;;;-142.65;84.57;50170.78;5077775;28;20269;-72
2022/09/28 11:18:21;;;;;;;7.27;7.07;;;;;;;;;;5077629;28;20220;-72
2022/09/28 11:20:48;;;;;;;7.73;7.20;;;;;;;-142.65;83.48;50170.78;5094892;28;20185;-72
2022/09/28 11:23:14;;;;;;;9.73;9.27;;;;;;;;;;5076940;28;20664;-72
2022/09/28 11:25:41;;;;;;;9.43;8.93;;;;;;;-142.65;84.43;50164.81;5076942;28;20217;-72
2022/09/28 11:28:21;;;;;;;8.60;7.83;;;;;;;-142.65;83.80;50170.78;5077837;28;20239;-72
2022/09/28 11:30:50;;;;;;;8.10;7.73;;;;;;;-142.65;84.27;50170.78;5076973;28;20192;-72
2022/09/28 11:33:36;;;;;;;8.13;7.83;;;;;;;-142.65;84.85;50164.81;5094903;28;20527;-72
2022/09/28 11:36:44;;;;;;;6.27;5.97;;;;;;;;;;5095181;28;20178;-72
2022/09/28 11:39:16;;;;;;;5.53;5.37;;;;;;;;;;5068767;28;20217;-72
2022/09/28 11:41:51;;;;;;;4.60;4.50;;;;;;;-142.65;82.15;50168.78;5076755;28;20209;-72
2022/09/28 11:44:24;;;;;;;4.50;4.40;;;;;;;;;;5076626;28;20189;-72
2022/09/28 11:47:45;;;;;;;3.77;3.73;;;;;;;-142.65;80.08;50168.78;5077142;28;20238;-72
2022/09/28 11:50:17;;;;;;;5.40;3.33;;;;;;;;;;5076753;28;20311;-72
2022/09/28 11:53:00;;;;;;;3.40;3.40;;;;;;;-142.65;81.28;50170.78;5076546;28;20564;-72
2022/09/28 11:55:37;;;;;;;2.97;2.97;;;;;;;-142.65;80.91;50178.75;5076751;28;20181;-73
2022/09/28 11:58:24;;;;;;;4.03;4.00;;;;;;;-142.65;81.48;50168.78;5094074;28;20215;-73
2022/09/28 12:00:59;;;;;;;3.10;3.07;;;;;;;-142.65;81.84;50164.81;5076683;28;20196;-72
2022/09/28 12:03:51;;;;;;;3.30;3.30;;;;;;;-142.65;82.42;50170.78;5076510;28;20221;-72
2022/09/28 12:06:19;;;;;;;3.90;3.83;;;;;;;;;;5093121;28;20204;-72
2022/09/28 12:08:52;;;;;;;4.40;4.20;;;;;;;-142.65;83.89;50168.78;5076080;28;20312;-72
2022/09/28 12:11:44;;;;;;;4.33;4.20;;;;;;;-142.65;82.15;50172.78;5094912;28;20274;-73
2022/09/28 12:14:22;;;;;;;7.33;6.63;;;;;;;-142.65;81.89;50170.78;5094794;28;20608;-73
2022/09/28 12:16:56;;;;;;;6.40;6.23;;;;;;;-142.65;82.57;50170.78;5076397;28;20212;-72
2022/09/28 12:19:42;;;;;;;7.20;6.87;;;;;;;-142.65;83.21;50170.78;5094002;28;20320;-72
2022/09/28 12:22:21;;;;;;;7.40;7.20;;;;;;;-142.65;82.07;50170.78;5094636;28;20174;-72
2022/09/28 12:24:51;;;;;;;9.00;7.53;;;;;;;-142.65;82.25;50170.78;5093941;28;20186;-72
2022/09/28 12:27:37;;;;;;;7.90;7.40;;;;;;;-142.65;81.65;50164.81;5093948;28;20181;-72